sensor_id;sensor_type;location;lat;lon;timestamp;temperature;humidity
65378;SHT31;51982;51.042;13.806;2024-03-02T01:25:57;8.14;91.61
65378;SHT31;51982;51.042;13.806;2024-03-02T01:28:23;8.30;91.54
65378;SHT31;51982;51.042;13.806;2024-03-02T01:30:48;8.54;91.34
65378;SHT31;51982;51.042;13.806;2024-03-02T01:33:18;8.74;91.08
65378;SHT31;51982;51.042;13.806;2024-03-02T01:35:49;8.94;90.82
65378;SHT31;51982;51.042;13.806;2024-03-02T01:38:40;9.08;90.54
65378;SHT31;51982;51.042;13.806;2024-03-02T01:41:10;9.24;90.39
65378;SHT31;51982;51.042;13.806;2024-03-02T01:43:41;9.34;90.10
65378;SHT31;51982;51.042;13.806;2024-03-02T01:46:09;9.43;89.93
65378;SHT31;51982;51.042;13.806;2024-03-02T01:48:35;9.47;89.77
65378;SHT31;51982;51.042;13.806;2024-03-02T01:51:01;9.53;89.67
65378;SHT31;51982;51.042;13.806;2024-03-02T01:53:26;9.62;89.57
65378;SHT31;51982;51.042;13.806;2024-03-02T01:55:53;9.67;89.45
65378;SHT31;51982;51.042;13.806;2024-03-02T01:58:27;9.67;89.37
65378;SHT31;51982;51.042;13.806;2024-03-02T02:00:56;9.73;89.29
65378;SHT31;51982;51.042;13.806;2024-03-02T02:03:35;9.75;89.23
65378;SHT31;51982;51.042;13.806;2024-03-02T02:06:05;9.77;89.14
65378;SHT31;51982;51.042;13.806;2024-03-02T02:08:35;9.80;89.07
65378;SHT31;51982;51.042;13.806;2024-03-02T02:11:07;9.85;89.06
65378;SHT31;51982;51.042;13.806;2024-03-02T02:13:35;9.83;89.05
65378;SHT31;51982;51.042;13.806;2024-03-02T02:16:15;9.83;89.01
65378;SHT31;51982;51.042;13.806;2024-03-02T02:18:48;9.85;88.95
65378;SHT31;51982;51.042;13.806;2024-03-02T02:21:13;9.86;88.92
65378;SHT31;51982;51.042;13.806;2024-03-02T02:23:39;9.87;88.83
65378;SHT31;51982;51.042;13.806;2024-03-02T02:26:05;9.91;88.86
65378;SHT31;51982;51.042;13.806;2024-03-02T02:28:30;9.90;88.82
65378;SHT31;51982;51.042;13.806;2024-03-02T02:30:59;9.90;88.84
65378;SHT31;51982;51.042;13.806;2024-03-02T02:33:30;9.89;88.81
65378;SHT31;51982;51.042;13.806;2024-03-02T02:35:56;9.90;88.76
65378;SHT31;51982;51.042;13.806;2024-03-02T02:38:21;9.91;88.74
65378;SHT31;51982;51.042;13.806;2024-03-02T02:40:50;9.91;88.72
65378;SHT31;51982;51.042;13.806;2024-03-02T02:43:19;9.90;88.67
65378;SHT31;51982;51.042;13.806;2024-03-02T02:45:44;9.94;88.69
65378;SHT31;51982;51.042;13.806;2024-03-02T02:48:13;9.94;88.68
65378;SHT31;51982;51.042;13.806;2024-03-02T02:50:43;9.94;88.71
65378;SHT31;51982;51.042;13.806;2024-03-02T02:53:29;9.90;88.66
65378;SHT31;51982;51.042;13.806;2024-03-02T02:55:58;9.89;88.63
65378;SHT31;51982;51.042;13.806;2024-03-02T02:58:25;9.90;88.60
65378;SHT31;51982;51.042;13.806;2024-03-02T03:00:51;9.94;88.61
65378;SHT31;51982;51.042;13.806;2024-03-02T03:03:26;9.91;88.55
65378;SHT31;51982;51.042;13.806;2024-03-02T03:05:54;9.89;88.56
65378;SHT31;51982;51.042;13.806;2024-03-02T03:08:23;9.90;88.55
65378;SHT31;51982;51.042;13.806;2024-03-02T03:10:49;9.89;88.57
65378;SHT31;51982;51.042;13.806;2024-03-02T03:13:14;9.90;88.59
65378;SHT31;51982;51.042;13.806;2024-03-02T03:15:45;9.89;88.54
65378;SHT31;51982;51.042;13.806;2024-03-02T03:18:14;9.87;88.59
65378;SHT31;51982;51.042;13.806;2024-03-02T03:20:47;9.86;88.56
65378;SHT31;51982;51.042;13.806;2024-03-02T03:23:16;9.87;88.59
65378;SHT31;51982;51.042;13.806;2024-03-02T03:25:45;9.86;88.55
65378;SHT31;51982;51.042;13.806;2024-03-02T03:28:14;9.87;88.60
65378;SHT31;51982;51.042;13.806;2024-03-02T03:30:44;9.86;88.58
65378;SHT31;51982;51.042;13.806;2024-03-02T03:33:15;9.85;88.55
65378;SHT31;51982;51.042;13.806;2024-03-02T03:35:43;9.86;88.49
65378;SHT31;51982;51.042;13.806;2024-03-02T03:38:11;9.87;88.51
65378;SHT31;51982;51.042;13.806;2024-03-02T03:40:39;9.85;88.50
65378;SHT31;51982;51.042;13.806;2024-03-02T03:43:16;9.83;88.46
65378;SHT31;51982;51.042;13.806;2024-03-02T03:46:26;9.79;88.46
65378;SHT31;51982;51.042;13.806;2024-03-02T04:04:04;9.53;88.49
65378;SHT31;51982;51.042;13.806;2024-03-02T04:10:55;9.55;88.64
65378;SHT31;51982;51.042;13.806;2024-03-02T04:17:44;9.49;88.64
65378;SHT31;51982;51.042;13.806;2024-03-02T04:33:51;9.39;88.66
65378;SHT31;51982;51.042;13.806;2024-03-02T04:36:51;9.39;88.63
65378;SHT31;51982;51.042;13.806;2024-03-02T04:43:01;9.35;88.64
65378;SHT31;51982;51.042;13.806;2024-03-02T04:46:16;9.35;88.62
65378;SHT31;51982;51.042;13.806;2024-03-02T05:07:03;9.52;88.69
65378;SHT31;51982;51.042;13.806;2024-03-02T05:09:35;9.53;88.70
65378;SHT31;51982;51.042;13.806;2024-03-02T05:12:01;9.55;88.63
65378;SHT31;51982;51.042;13.806;2024-03-02T05:14:35;9.56;88.60
65378;SHT31;51982;51.042;13.806;2024-03-02T05:17:01;9.57;88.57
65378;SHT31;51982;51.042;13.806;2024-03-02T05:19:26;9.60;88.59
65378;SHT31;51982;51.042;13.806;2024-03-02T05:21:52;9.59;88.54
65378;SHT31;51982;51.042;13.806;2024-03-02T05:24:17;9.63;88.50
65378;SHT31;51982;51.042;13.806;2024-03-02T05:26:43;9.63;88.51
65378;SHT31;51982;51.042;13.806;2024-03-02T05:29:12;9.66;88.50
65378;SHT31;51982;51.042;13.806;2024-03-02T05:31:40;9.67;88.45
65378;SHT31;51982;51.042;13.806;2024-03-02T05:34:13;9.66;88.40
65378;SHT31;51982;51.042;13.806;2024-03-02T05:36:39;9.70;88.40
65378;SHT31;51982;51.042;13.806;2024-03-02T05:39:05;9.69;88.37
65378;SHT31;51982;51.042;13.806;2024-03-02T05:41:34;9.70;88.34
65378;SHT31;51982;51.042;13.806;2024-03-02T05:44:00;9.73;88.32
65378;SHT31;51982;51.042;13.806;2024-03-02T05:46:27;9.72;88.36
65378;SHT31;51982;51.042;13.806;2024-03-02T05:48:52;9.72;88.34
65378;SHT31;51982;51.042;13.806;2024-03-02T05:51:18;9.72;88.29
65378;SHT31;51982;51.042;13.806;2024-03-02T05:53:46;9.73;88.31
65378;SHT31;51982;51.042;13.806;2024-03-02T05:56:14;9.75;88.31
65378;SHT31;51982;51.042;13.806;2024-03-02T05:58:49;9.75;88.28
65378;SHT31;51982;51.042;13.806;2024-03-02T06:01:37;9.75;88.27
65378;SHT31;51982;51.042;13.806;2024-03-02T06:04:03;9.72;88.26
65378;SHT31;51982;51.042;13.806;2024-03-02T06:06:28;9.72;88.28
65378;SHT31;51982;51.042;13.806;2024-03-02T06:08:54;9.72;88.24
65378;SHT31;51982;51.042;13.806;2024-03-02T06:11:27;9.73;88.21
65378;SHT31;51982;51.042;13.806;2024-03-02T06:14:31;9.70;88.25
65378;SHT31;51982;51.042;13.806;2024-03-02T06:17:00;9.73;88.24
65378;SHT31;51982;51.042;13.806;2024-03-02T06:19:27;9.72;88.21
65378;SHT31;51982;51.042;13.806;2024-03-02T06:21:53;9.72;88.22
65378;SHT31;51982;51.042;13.806;2024-03-02T06:24:19;9.73;88.20
65378;SHT31;51982;51.042;13.806;2024-03-02T06:27:06;9.70;88.21
65378;SHT31;51982;51.042;13.806;2024-03-02T06:29:33;9.75;88.21
65378;SHT31;51982;51.042;13.806;2024-03-02T06:32:22;9.72;88.17
65378;SHT31;51982;51.042;13.806;2024-03-02T06:34:54;9.73;88.21
65378;SHT31;51982;51.042;13.806;2024-03-02T06:38:06;9.70;88.18
65378;SHT31;51982;51.042;13.806;2024-03-02T06:40:33;9.70;88.21
65378;SHT31;51982;51.042;13.806;2024-03-02T06:43:25;9.69;88.20
65378;SHT31;51982;51.042;13.806;2024-03-02T06:46:17;9.67;88.17
65378;SHT31;51982;51.042;13.806;2024-03-02T06:48:51;9.67;88.20
65378;SHT31;51982;51.042;13.806;2024-03-02T06:51:17;9.67;88.18
65378;SHT31;51982;51.042;13.806;2024-03-02T06:53:50;9.65;88.17
65378;SHT31;51982;51.042;13.806;2024-03-02T06:56:16;9.67;88.20
65378;SHT31;51982;51.042;13.806;2024-03-02T06:58:42;9.69;88.18
65378;SHT31;51982;51.042;13.806;2024-03-02T07:01:08;9.70;88.20
65378;SHT31;51982;51.042;13.806;2024-03-02T07:03:59;9.69;88.17
65378;SHT31;51982;51.042;13.806;2024-03-02T07:06:32;9.69;88.11
65378;SHT31;51982;51.042;13.806;2024-03-02T07:08:58;9.70;88.11
65378;SHT31;51982;51.042;13.806;2024-03-02T07:11:57;9.72;88.13
65378;SHT31;51982;51.042;13.806;2024-03-02T07:14:28;9.73;88.10
65378;SHT31;51982;51.042;13.806;2024-03-02T07:17:18;9.76;88.09
65378;SHT31;51982;51.042;13.806;2024-03-02T07:19:49;9.73;88.04
65378;SHT31;51982;51.042;13.806;2024-03-02T07:22:20;9.70;88.05
65378;SHT31;51982;51.042;13.806;2024-03-02T07:25:02;9.73;88.10
65378;SHT31;51982;51.042;13.806;2024-03-02T07:27:38;9.75;88.06
65378;SHT31;51982;51.042;13.806;2024-03-02T07:30:14;9.75;88.08
65378;SHT31;51982;51.042;13.806;2024-03-02T07:32:50;9.77;88.06
65378;SHT31;51982;51.042;13.806;2024-03-02T07:35:24;9.77;88.07
65378;SHT31;51982;51.042;13.806;2024-03-02T07:37:55;9.80;88.07
65378;SHT31;51982;51.042;13.806;2024-03-02T07:40:24;9.82;88.00
65378;SHT31;51982;51.042;13.806;2024-03-02T07:42:55;9.83;87.99
65378;SHT31;51982;51.042;13.806;2024-03-02T07:45:21;9.86;87.96
65378;SHT31;51982;51.042;13.806;2024-03-02T07:47:50;9.87;87.98
65378;SHT31;51982;51.042;13.806;2024-03-02T07:50:24;9.87;87.96
65378;SHT31;51982;51.042;13.806;2024-03-02T07:52:53;9.89;87.90
65378;SHT31;51982;51.042;13.806;2024-03-02T07:58:40;9.90;87.85
65378;SHT31;51982;51.042;13.806;2024-03-02T08:01:08;9.89;87.85
65378;SHT31;51982;51.042;13.806;2024-03-02T08:03:33;9.87;87.85
65378;SHT31;51982;51.042;13.806;2024-03-02T08:05:59;9.89;87.85
65378;SHT31;51982;51.042;13.806;2024-03-02T08:08:25;9.87;87.82
65378;SHT31;51982;51.042;13.806;2024-03-02T08:10:51;9.87;87.85
65378;SHT31;51982;51.042;13.806;2024-03-02T08:13:16;9.87;87.85
65378;SHT31;51982;51.042;13.806;2024-03-02T08:15:42;9.89;87.82
65378;SHT31;51982;51.042;13.806;2024-03-02T08:18:07;9.87;87.84
65378;SHT31;51982;51.042;13.806;2024-03-02T08:20:33;9.89;87.81
65378;SHT31;51982;51.042;13.806;2024-03-02T08:22:58;9.89;87.73
65378;SHT31;51982;51.042;13.806;2024-03-02T08:25:24;9.90;87.69
65378;SHT31;51982;51.042;13.806;2024-03-02T08:27:50;9.91;87.77
65378;SHT31;51982;51.042;13.806;2024-03-02T08:30:15;9.91;87.74
65378;SHT31;51982;51.042;13.806;2024-03-02T08:32:41;9.96;87.71
65378;SHT31;51982;51.042;13.806;2024-03-02T08:35:06;9.93;87.70
65378;SHT31;51982;51.042;13.806;2024-03-02T08:37:32;9.94;87.66
65378;SHT31;51982;51.042;13.806;2024-03-02T08:40:01;9.97;87.67
65378;SHT31;51982;51.042;13.806;2024-03-02T08:42:26;9.98;87.56
65378;SHT31;51982;51.042;13.806;2024-03-02T08:44:52;10.03;87.60
65378;SHT31;51982;51.042;13.806;2024-03-02T08:47:17;10.07;87.56
65378;SHT31;51982;51.042;13.806;2024-03-02T08:49:46;10.10;87.51
65378;SHT31;51982;51.042;13.806;2024-03-02T08:52:11;10.21;87.52
65378;SHT31;51982;51.042;13.806;2024-03-02T08:54:37;10.22;87.50
65378;SHT31;51982;51.042;13.806;2024-03-02T08:57:05;10.21;87.38
65378;SHT31;51982;51.042;13.806;2024-03-02T08:59:32;10.34;87.41
65378;SHT31;51982;51.042;13.806;2024-03-02T09:02:01;10.41;87.44
65378;SHT31;51982;51.042;13.806;2024-03-02T09:04:27;10.51;87.30
65378;SHT31;51982;51.042;13.806;2024-03-02T09:06:53;10.51;87.10
65378;SHT31;51982;51.042;13.806;2024-03-02T09:09:18;10.58;87.14
65378;SHT31;51982;51.042;13.806;2024-03-02T09:11:46;10.64;87.05
65378;SHT31;51982;51.042;13.806;2024-03-02T09:14:12;10.67;87.03
65378;SHT31;51982;51.042;13.806;2024-03-02T09:16:37;10.71;87.06
65378;SHT31;51982;51.042;13.806;2024-03-02T09:19:03;10.73;86.97
65378;SHT31;51982;51.042;13.806;2024-03-02T09:21:29;10.79;86.93
65378;SHT31;51982;51.042;13.806;2024-03-02T09:23:55;10.83;86.91
65378;SHT31;51982;51.042;13.806;2024-03-02T09:26:22;10.89;86.95
65378;SHT31;51982;51.042;13.806;2024-03-02T09:28:47;10.96;87.03
65378;SHT31;51982;51.042;13.806;2024-03-02T09:31:13;10.96;86.89
65378;SHT31;51982;51.042;13.806;2024-03-02T09:33:39;11.00;86.78
65378;SHT31;51982;51.042;13.806;2024-03-02T09:36:05;10.88;86.64
65378;SHT31;51982;51.042;13.806;2024-03-02T09:38:33;10.85;86.57
65378;SHT31;51982;51.042;13.806;2024-03-02T09:41:00;10.86;86.78
65378;SHT31;51982;51.042;13.806;2024-03-02T09:43:26;10.86;86.84
65378;SHT31;51982;51.042;13.806;2024-03-02T09:45:52;10.83;86.72
65378;SHT31;51982;51.042;13.806;2024-03-02T09:48:18;10.79;86.76
65378;SHT31;51982;51.042;13.806;2024-03-02T09:50:46;10.75;86.77
65378;SHT31;51982;51.042;13.806;2024-03-02T09:53:12;10.73;86.78
65378;SHT31;51982;51.042;13.806;2024-03-02T09:55:37;10.72;86.90
65378;SHT31;51982;51.042;13.806;2024-03-02T09:58:10;10.75;86.90
65378;SHT31;51982;51.042;13.806;2024-03-02T10:00:37;10.75;86.84
65378;SHT31;51982;51.042;13.806;2024-03-02T22:00:52;8.03;88.70
65378;SHT31;51982;51.042;13.806;2024-03-02T22:03:19;8.26;88.59
65378;SHT31;51982;51.042;13.806;2024-03-02T22:05:45;8.53;88.49
65378;SHT31;51982;51.042;13.806;2024-03-02T22:08:10;8.74;88.30
65378;SHT31;51982;51.042;13.806;2024-03-02T22:10:36;8.94;88.17
65378;SHT31;51982;51.042;13.806;2024-03-02T22:13:01;9.18;88.07
65378;SHT31;51982;51.042;13.806;2024-03-02T22:15:27;9.32;87.98
65378;SHT31;51982;51.042;13.806;2024-03-02T22:17:52;9.45;87.83
65378;SHT31;51982;51.042;13.806;2024-03-02T22:20:18;9.56;87.75
65378;SHT31;51982;51.042;13.806;2024-03-02T22:22:43;9.63;87.62
65378;SHT31;51982;51.042;13.806;2024-03-02T22:25:09;9.67;87.57
65378;SHT31;51982;51.042;13.806;2024-03-02T22:27:34;9.77;87.50
65378;SHT31;51982;51.042;13.806;2024-03-02T22:30:05;9.82;87.42
65378;SHT31;51982;51.042;13.806;2024-03-02T22:32:31;9.86;87.33
65378;SHT31;51982;51.042;13.806;2024-03-02T22:34:56;9.87;87.31
65378;SHT31;51982;51.042;13.806;2024-03-02T22:37:22;9.90;87.19
65378;SHT31;51982;51.042;13.806;2024-03-02T22:39:48;9.91;87.13
65378;SHT31;51982;51.042;13.806;2024-03-02T22:42:13;9.96;87.11
65378;SHT31;51982;51.042;13.806;2024-03-02T22:44:39;9.96;87.06
65378;SHT31;51982;51.042;13.806;2024-03-02T22:47:04;9.96;87.01
65378;SHT31;51982;51.042;13.806;2024-03-02T22:49:30;9.93;86.96
65378;SHT31;51982;51.042;13.806;2024-03-02T22:56:37;9.55;86.97
65378;SHT31;51982;51.042;13.806;2024-03-02T22:59:13;9.50;87.04
65378;SHT31;51982;51.042;13.806;2024-03-02T23:01:42;9.53;87.07
65378;SHT31;51982;51.042;13.806;2024-03-02T23:04:15;9.63;87.08
65378;SHT31;51982;51.042;13.806;2024-03-02T23:06:52;9.66;87.10
65378;SHT31;51982;51.042;13.806;2024-03-02T23:12:39;9.80;86.95
65378;SHT31;51982;51.042;13.806;2024-03-02T23:28:25;9.94;86.53
65378;SHT31;51982;51.042;13.806;2024-03-02T23:38:10;9.97;86.29
65378;SHT31;51982;51.042;13.806;2024-03-02T23:40:45;9.96;86.27
65378;SHT31;51982;51.042;13.806;2024-03-02T23:43:59;9.91;86.38
65378;SHT31;51982;51.042;13.806;2024-03-02T23:46:31;9.90;86.22
65378;SHT31;51982;51.042;13.806;2024-03-02T23:51:44;9.91;86.10
65378;SHT31;51982;51.042;13.806;2024-03-02T23:54:10;9.90;86.12
65378;SHT31;51982;51.042;13.806;2024-03-02T23:56:36;9.91;86.14
65378;SHT31;51982;51.042;13.806;2024-03-02T23:59:01;9.91;86.03
